sensor_id;sensor_type;location;lat;lon;timestamp;temperature;humidity
57709;SHT35;42558;52.388;13.390;2023-04-24T00:01:02;10.48;83.91
57709;SHT35;42558;52.388;13.390;2023-04-24T00:03:31;10.49;83.85
57709;SHT35;42558;52.388;13.390;2023-04-24T00:05:59;10.47;83.89
57709;SHT35;42558;52.388;13.390;2023-04-24T00:08:28;10.46;84.02
57709;SHT35;42558;52.388;13.390;2023-04-24T00:10:56;10.42;83.96
57709;SHT35;42558;52.388;13.390;2023-04-24T00:13:25;10.40;84.23
57709;SHT35;42558;52.388;13.390;2023-04-24T00:15:53;10.37;84.36
57709;SHT35;42558;52.388;13.390;2023-04-24T00:18:24;10.32;84.19
57709;SHT35;42558;52.388;13.390;2023-04-24T00:20:53;10.25;84.41
57709;SHT35;42558;52.388;13.390;2023-04-24T00:23:21;10.24;84.79
57709;SHT35;42558;52.388;13.390;2023-04-24T00:25:50;10.23;85.02
57709;SHT35;42558;52.388;13.390;2023-04-24T00:28:18;10.23;85.18
57709;SHT35;42558;52.388;13.390;2023-04-24T00:30:47;10.22;85.36
57709;SHT35;42558;52.388;13.390;2023-04-24T00:33:15;10.23;85.49
57709;SHT35;42558;52.388;13.390;2023-04-24T00:35:44;10.21;85.42
57709;SHT35;42558;52.388;13.390;2023-04-24T00:38:12;10.17;85.50
57709;SHT35;42558;52.388;13.390;2023-04-24T00:40:41;10.15;85.78
57709;SHT35;42558;52.388;13.390;2023-04-24T00:43:09;10.15;85.90
57709;SHT35;42558;52.388;13.390;2023-04-24T00:45:37;10.17;85.99
57709;SHT35;42558;52.388;13.390;2023-04-24T00:48:06;10.15;85.99
57709;SHT35;42558;52.388;13.390;2023-04-24T00:50:38;10.14;85.99
57709;SHT35;42558;52.388;13.390;2023-04-24T00:53:06;10.14;86.18
57709;SHT35;42558;52.388;13.390;2023-04-24T00:55:34;10.12;86.24
57709;SHT35;42558;52.388;13.390;2023-04-24T00:58:06;10.11;86.26
57709;SHT35;42558;52.388;13.390;2023-04-24T01:00:37;10.10;86.21
57709;SHT35;42558;52.388;13.390;2023-04-24T01:03:08;10.08;86.23
57709;SHT35;42558;52.388;13.390;2023-04-24T01:05:38;10.07;86.41
57709;SHT35;42558;52.388;13.390;2023-04-24T01:08:08;10.07;86.50
57709;SHT35;42558;52.388;13.390;2023-04-24T01:10:38;10.04;86.57
57709;SHT35;42558;52.388;13.390;2023-04-24T01:13:10;10.05;86.86
57709;SHT35;42558;52.388;13.390;2023-04-24T01:15:40;10.10;87.33
57709;SHT35;42558;52.388;13.390;2023-04-24T01:18:10;10.15;87.35
57709;SHT35;42558;52.388;13.390;2023-04-24T01:20:41;10.14;87.33
57709;SHT35;42558;52.388;13.390;2023-04-24T01:23:13;10.13;87.32
57709;SHT35;42558;52.388;13.390;2023-04-24T01:25:43;10.14;87.39
57709;SHT35;42558;52.388;13.390;2023-04-24T01:28:14;10.14;87.48
57709;SHT35;42558;52.388;13.390;2023-04-24T01:30:45;10.11;87.42
57709;SHT35;42558;52.388;13.390;2023-04-24T01:33:15;10.13;87.79
57709;SHT35;42558;52.388;13.390;2023-04-24T01:35:46;10.15;87.86
57709;SHT35;42558;52.388;13.390;2023-04-24T01:38:17;10.14;87.72
57709;SHT35;42558;52.388;13.390;2023-04-24T01:40:47;10.13;87.88
57709;SHT35;42558;52.388;13.390;2023-04-24T01:43:19;10.09;87.82
57709;SHT35;42558;52.388;13.390;2023-04-24T01:45:49;10.10;88.00
57709;SHT35;42558;52.388;13.390;2023-04-24T01:48:19;10.11;88.07
57709;SHT35;42558;52.388;13.390;2023-04-24T01:50:50;10.12;88.14
57709;SHT35;42558;52.388;13.390;2023-04-24T01:53:19;10.10;88.04
57709;SHT35;42558;52.388;13.390;2023-04-24T01:55:49;10.08;88.03
57709;SHT35;42558;52.388;13.390;2023-04-24T01:58:19;10.09;88.23
57709;SHT35;42558;52.388;13.390;2023-04-24T02:00:50;10.14;88.41
57709;SHT35;42558;52.388;13.390;2023-04-24T02:03:20;10.15;88.42
57709;SHT35;42558;52.388;13.390;2023-04-24T02:05:50;10.19;88.53
57709;SHT35;42558;52.388;13.390;2023-04-24T02:08:20;10.18;88.46
57709;SHT35;42558;52.388;13.390;2023-04-24T02:10:50;10.15;88.38
57709;SHT35;42558;52.388;13.390;2023-04-24T02:13:20;10.16;88.54
57709;SHT35;42558;52.388;13.390;2023-04-24T02:15:50;10.18;88.69
57709;SHT35;42558;52.388;13.390;2023-04-24T02:18:19;10.21;88.70
57709;SHT35;42558;52.388;13.390;2023-04-24T02:20:50;10.22;88.63
57709;SHT35;42558;52.388;13.390;2023-04-24T02:23:19;10.21;88.65
57709;SHT35;42558;52.388;13.390;2023-04-24T02:25:49;10.23;88.66
57709;SHT35;42558;52.388;13.390;2023-04-24T02:28:19;10.24;88.72
57709;SHT35;42558;52.388;13.390;2023-04-24T02:30:49;10.25;88.65
57709;SHT35;42558;52.388;13.390;2023-04-24T02:33:20;10.24;88.60
57709;SHT35;42558;52.388;13.390;2023-04-24T02:35:50;10.25;88.70
57709;SHT35;42558;52.388;13.390;2023-04-24T02:38:20;10.30;88.66
57709;SHT35;42558;52.388;13.390;2023-04-24T02:40:49;10.31;88.59
57709;SHT35;42558;52.388;13.390;2023-04-24T02:43:19;10.32;88.56
57709;SHT35;42558;52.388;13.390;2023-04-24T02:45:49;10.33;88.55
57709;SHT35;42558;52.388;13.390;2023-04-24T02:48:19;10.35;88.55
57709;SHT35;42558;52.388;13.390;2023-04-24T02:50:50;10.39;88.54
57709;SHT35;42558;52.388;13.390;2023-04-24T02:53:20;10.40;88.42
57709;SHT35;42558;52.388;13.390;2023-04-24T02:55:50;10.41;88.40
57709;SHT35;42558;52.388;13.390;2023-04-24T02:58:20;10.42;88.40
57709;SHT35;42558;52.388;13.390;2023-04-24T03:00:48;10.44;88.39
57709;SHT35;42558;52.388;13.390;2023-04-24T03:03:23;10.47;88.40
57709;SHT35;42558;52.388;13.390;2023-04-24T03:05:54;10.48;88.40
57709;SHT35;42558;52.388;13.390;2023-04-24T03:08:24;10.52;88.46
57709;SHT35;42558;52.388;13.390;2023-04-24T03:10:54;10.57;88.39
57709;SHT35;42558;52.388;13.390;2023-04-24T03:13:24;10.61;88.33
57709;SHT35;42558;52.388;13.390;2023-04-24T03:15:54;10.63;88.20
57709;SHT35;42558;52.388;13.390;2023-04-24T03:18:24;10.65;88.20
57709;SHT35;42558;52.388;13.390;2023-04-24T03:20:54;10.67;88.13
57709;SHT35;42558;52.388;13.390;2023-04-24T03:23:24;10.68;88.01
57709;SHT35;42558;52.388;13.390;2023-04-24T03:25:54;10.70;88.07
57709;SHT35;42558;52.388;13.390;2023-04-24T03:28:24;10.75;87.91
57709;SHT35;42558;52.388;13.390;2023-04-24T03:30:54;10.77;87.82
57709;SHT35;42558;52.388;13.390;2023-04-24T03:33:24;10.79;87.79
57709;SHT35;42558;52.388;13.390;2023-04-24T03:35:54;10.80;87.72
57709;SHT35;42558;52.388;13.390;2023-04-24T03:38:24;10.80;87.75
57709;SHT35;42558;52.388;13.390;2023-04-24T03:40:54;10.81;87.73
57709;SHT35;42558;52.388;13.390;2023-04-24T03:43:24;10.80;87.69
57709;SHT35;42558;52.388;13.390;2023-04-24T03:45:54;10.81;87.66
57709;SHT35;42558;52.388;13.390;2023-04-24T03:48:24;10.81;87.70
57709;SHT35;42558;52.388;13.390;2023-04-24T03:50:54;10.80;87.75
57709;SHT35;42558;52.388;13.390;2023-04-24T03:53:24;10.80;87.83
57709;SHT35;42558;52.388;13.390;2023-04-24T03:55:54;10.80;87.90
57709;SHT35;42558;52.388;13.390;2023-04-24T03:58:24;10.81;87.81
57709;SHT35;42558;52.388;13.390;2023-04-24T04:00:54;10.81;87.89
57709;SHT35;42558;52.388;13.390;2023-04-24T04:03:25;10.81;87.96
57709;SHT35;42558;52.388;13.390;2023-04-24T04:05:53;10.82;87.99
57709;SHT35;42558;52.388;13.390;2023-04-24T04:08:22;10.84;88.04
57709;SHT35;42558;52.388;13.390;2023-04-24T04:10:50;10.89;87.99
57709;SHT35;42558;52.388;13.390;2023-04-24T04:13:19;10.92;87.86
57709;SHT35;42558;52.388;13.390;2023-04-24T04:15:47;10.98;87.68
57709;SHT35;42558;52.388;13.390;2023-04-24T04:18:16;11.10;87.32
57709;SHT35;42558;52.388;13.390;2023-04-24T04:20:44;11.18;86.83
57709;SHT35;42558;52.388;13.390;2023-04-24T04:23:13;11.27;86.39
57709;SHT35;42558;52.388;13.390;2023-04-24T04:25:41;11.33;86.15
57709;SHT35;42558;52.388;13.390;2023-04-24T04:28:09;11.40;85.81
57709;SHT35;42558;52.388;13.390;2023-04-24T04:30:38;11.41;85.80
57709;SHT35;42558;52.388;13.390;2023-04-24T04:33:06;11.40;85.81
57709;SHT35;42558;52.388;13.390;2023-04-24T04:35:35;11.44;85.68
57709;SHT35;42558;52.388;13.390;2023-04-24T04:38:03;11.51;85.37
57709;SHT35;42558;52.388;13.390;2023-04-24T04:40:32;11.52;85.32
57709;SHT35;42558;52.388;13.390;2023-04-24T04:43:00;11.52;85.29
57709;SHT35;42558;52.388;13.390;2023-04-24T04:45:28;11.60;84.96
57709;SHT35;42558;52.388;13.390;2023-04-24T04:47:57;11.60;84.89
57709;SHT35;42558;52.388;13.390;2023-04-24T04:50:26;11.56;84.90
57709;SHT35;42558;52.388;13.390;2023-04-24T04:52:54;11.56;84.94
57709;SHT35;42558;52.388;13.390;2023-04-24T04:55:23;11.57;84.85
57709;SHT35;42558;52.388;13.390;2023-04-24T04:57:52;11.59;84.87
57709;SHT35;42558;52.388;13.390;2023-04-24T05:00:20;11.61;84.80
57709;SHT35;42558;52.388;13.390;2023-04-24T05:02:48;11.59;84.75
57709;SHT35;42558;52.388;13.390;2023-04-24T05:05:17;11.61;84.65
57709;SHT35;42558;52.388;13.390;2023-04-24T05:07:45;11.66;84.39
57709;SHT35;42558;52.388;13.390;2023-04-24T05:10:14;11.69;84.31
57709;SHT35;42558;52.388;13.390;2023-04-24T05:12:42;11.69;84.09
57709;SHT35;42558;52.388;13.390;2023-04-24T05:15:13;11.74;83.80
57709;SHT35;42558;52.388;13.390;2023-04-24T05:17:42;11.78;83.76
57709;SHT35;42558;52.388;13.390;2023-04-24T05:20:10;11.79;83.65
57709;SHT35;42558;52.388;13.390;2023-04-24T05:22:39;11.83;83.50
57709;SHT35;42558;52.388;13.390;2023-04-24T05:25:07;11.89;83.39
57709;SHT35;42558;52.388;13.390;2023-04-24T05:27:36;11.99;83.25
57709;SHT35;42558;52.388;13.390;2023-04-24T05:30:04;12.13;82.77
57709;SHT35;42558;52.388;13.390;2023-04-24T05:32:32;12.10;82.55
57709;SHT35;42558;52.388;13.390;2023-04-24T05:35:01;12.07;82.61
57709;SHT35;42558;52.388;13.390;2023-04-24T05:37:29;12.13;82.39
57709;SHT35;42558;52.388;13.390;2023-04-24T05:39:58;12.27;82.04
57709;SHT35;42558;52.388;13.390;2023-04-24T05:42:26;12.33;81.72
57709;SHT35;42558;52.388;13.390;2023-04-24T05:44:55;12.37;81.27
57709;SHT35;42558;52.388;13.390;2023-04-24T05:47:23;12.37;81.39
57709;SHT35;42558;52.388;13.390;2023-04-24T05:49:52;12.35;81.15
57709;SHT35;42558;52.388;13.390;2023-04-24T05:52:20;12.40;81.12
57709;SHT35;42558;52.388;13.390;2023-04-24T05:54:48;12.50;81.03
57709;SHT35;42558;52.388;13.390;2023-04-24T05:57:17;12.60;80.57
57709;SHT35;42558;52.388;13.390;2023-04-24T05:59:45;12.61;80.17
57709;SHT35;42558;52.388;13.390;2023-04-24T06:02:14;12.74;79.45
57709;SHT35;42558;52.388;13.390;2023-04-24T06:04:42;12.83;79.37
57709;SHT35;42558;52.388;13.390;2023-04-24T06:07:11;13.05;78.75
57709;SHT35;42558;52.388;13.390;2023-04-24T06:09:39;13.15;78.12
57709;SHT35;42558;52.388;13.390;2023-04-24T06:12:10;13.17;77.69
57709;SHT35;42558;52.388;13.390;2023-04-24T06:14:41;13.32;77.45
57709;SHT35;42558;52.388;13.390;2023-04-24T06:17:11;13.45;76.60
57709;SHT35;42558;52.388;13.390;2023-04-24T06:19:41;13.30;76.57
57709;SHT35;42558;52.388;13.390;2023-04-24T06:22:12;13.13;76.75
57709;SHT35;42558;52.388;13.390;2023-04-24T06:24:41;13.06;76.88
57709;SHT35;42558;52.388;13.390;2023-04-24T06:27:11;13.07;76.73
57709;SHT35;42558;52.388;13.390;2023-04-24T06:29:41;13.15;76.20
57709;SHT35;42558;52.388;13.390;2023-04-24T06:32:12;13.37;75.86
57709;SHT35;42558;52.388;13.390;2023-04-24T06:34:42;13.72;74.82
57709;SHT35;42558;52.388;13.390;2023-04-24T06:37:12;14.06;74.25
57709;SHT35;42558;52.388;13.390;2023-04-24T06:39:41;14.38;73.11
57709;SHT35;42558;52.388;13.390;2023-04-24T06:42:12;14.57;71.62
57709;SHT35;42558;52.388;13.390;2023-04-24T06:44:46;14.74;71.60
57709;SHT35;42558;52.388;13.390;2023-04-24T06:47:13;15.10;70.78
57709;SHT35;42558;52.388;13.390;2023-04-24T06:49:43;15.34;69.58
57709;SHT35;42558;52.388;13.390;2023-04-24T06:52:13;15.43;69.03
57709;SHT35;42558;52.388;13.390;2023-04-24T06:54:44;15.68;67.57
57709;SHT35;42558;52.388;13.390;2023-04-24T06:57:14;15.78;67.40
57709;SHT35;42558;52.388;13.390;2023-04-24T06:59:45;16.06;67.02
57709;SHT35;42558;52.388;13.390;2023-04-24T07:02:15;15.74;65.61
57709;SHT35;42558;52.388;13.390;2023-04-24T07:04:45;15.16;67.73
57709;SHT35;42558;52.388;13.390;2023-04-24T07:07:15;15.26;68.52
57709;SHT35;42558;52.388;13.390;2023-04-24T07:09:46;15.36;68.44
57709;SHT35;42558;52.388;13.390;2023-04-24T07:12:16;15.24;68.20
57709;SHT35;42558;52.388;13.390;2023-04-24T07:14:46;15.42;68.21
57709;SHT35;42558;52.388;13.390;2023-04-24T07:17:16;16.21;67.12
57709;SHT35;42558;52.388;13.390;2023-04-24T07:19:46;16.57;64.73
57709;SHT35;42558;52.388;13.390;2023-04-24T07:22:16;16.65;64.65
57709;SHT35;42558;52.388;13.390;2023-04-24T07:24:46;16.52;63.77
57709;SHT35;42558;52.388;13.390;2023-04-24T07:27:16;16.06;64.61
57709;SHT35;42558;52.388;13.390;2023-04-24T07:29:46;16.16;64.97
57709;SHT35;42558;52.388;13.390;2023-04-24T07:32:16;16.43;63.36
57709;SHT35;42558;52.388;13.390;2023-04-24T07:34:46;16.52;63.60
57709;SHT35;42558;52.388;13.390;2023-04-24T07:37:16;16.79;62.11
57709;SHT35;42558;52.388;13.390;2023-04-24T07:39:46;17.08;63.01
57709;SHT35;42558;52.388;13.390;2023-04-24T07:42:16;17.09;61.63
57709;SHT35;42558;52.388;13.390;2023-04-24T07:44:46;17.22;62.10
57709;SHT35;42558;52.388;13.390;2023-04-24T07:47:16;17.44;59.82
57709;SHT35;42558;52.388;13.390;2023-04-24T07:49:46;16.98;59.78
57709;SHT35;42558;52.388;13.390;2023-04-24T07:52:16;16.95;61.23
57709;SHT35;42558;52.388;13.390;2023-04-24T07:54:46;17.23;61.29
57709;SHT35;42558;52.388;13.390;2023-04-24T07:57:16;17.32;58.74
57709;SHT35;42558;52.388;13.390;2023-04-24T07:59:46;17.28;59.39
57709;SHT35;42558;52.388;13.390;2023-04-24T08:02:16;17.54;59.87
57709;SHT35;42558;52.388;13.390;2023-04-24T08:04:46;17.56;58.46
57709;SHT35;42558;52.388;13.390;2023-04-24T08:07:16;17.38;60.06
57709;SHT35;42558;52.388;13.390;2023-04-24T08:09:46;17.23;60.25
57709;SHT35;42558;52.388;13.390;2023-04-24T08:12:16;16.73;62.30
57709;SHT35;42558;52.388;13.390;2023-04-24T08:14:46;16.82;61.60
57709;SHT35;42558;52.388;13.390;2023-04-24T08:17:16;16.87;61.07
57709;SHT35;42558;52.388;13.390;2023-04-24T08:19:46;17.16;61.26
57709;SHT35;42558;52.388;13.390;2023-04-24T08:22:19;17.79;59.48
57709;SHT35;42558;52.388;13.390;2023-04-24T08:24:48;18.17;57.52
57709;SHT35;42558;52.388;13.390;2023-04-24T08:27:16;17.97;56.88
57709;SHT35;42558;52.388;13.390;2023-04-24T08:29:45;17.62;59.28
57709;SHT35;42558;52.388;13.390;2023-04-24T08:32:13;17.89;59.42
57709;SHT35;42558;52.388;13.390;2023-04-24T08:34:42;17.77;58.54
57709;SHT35;42558;52.388;13.390;2023-04-24T08:37:10;17.68;59.33
57709;SHT35;42558;52.388;13.390;2023-04-24T08:39:38;17.34;60.38
57709;SHT35;42558;52.388;13.390;2023-04-24T08:42:07;17.69;60.12
57709;SHT35;42558;52.388;13.390;2023-04-24T08:44:45;18.19;59.48
57709;SHT35;42558;52.388;13.390;2023-04-24T08:47:17;18.43;59.86
57709;SHT35;42558;52.388;13.390;2023-04-24T08:49:49;18.48;60.15
57709;SHT35;42558;52.388;13.390;2023-04-24T08:52:21;18.51;58.45
57709;SHT35;42558;52.388;13.390;2023-04-24T08:54:51;17.55;60.22
57709;SHT35;42558;52.388;13.390;2023-04-24T08:57:23;17.41;61.42
57709;SHT35;42558;52.388;13.390;2023-04-24T08:59:56;17.47;61.42
57709;SHT35;42558;52.388;13.390;2023-04-24T09:02:27;17.85;61.05
57709;SHT35;42558;52.388;13.390;2023-04-24T09:04:59;17.91;60.31
57709;SHT35;42558;52.388;13.390;2023-04-24T09:07:30;17.90;61.23
57709;SHT35;42558;52.388;13.390;2023-04-24T09:10:05;17.14;61.50
57709;SHT35;42558;52.388;13.390;2023-04-24T09:12:37;16.76;63.12
57709;SHT35;42558;52.388;13.390;2023-04-24T09:15:05;16.65;63.53
57709;SHT35;42558;52.388;13.390;2023-04-24T09:17:37;16.57;63.84
57709;SHT35;42558;52.388;13.390;2023-04-24T09:20:08;16.64;64.06
57709;SHT35;42558;52.388;13.390;2023-04-24T09:22:38;16.78;63.74
57709;SHT35;42558;52.388;13.390;2023-04-24T09:25:08;16.82;64.00
57709;SHT35;42558;52.388;13.390;2023-04-24T09:27:42;16.70;64.20
57709;SHT35;42558;52.388;13.390;2023-04-24T09:30:14;16.70;63.46
57709;SHT35;42558;52.388;13.390;2023-04-24T09:35:49;17.10;62.15
57709;SHT35;42558;52.388;13.390;2023-04-24T09:38:36;16.84;62.28
57709;SHT35;42558;52.388;13.390;2023-04-24T09:41:08;16.89;61.46
57709;SHT35;42558;52.388;13.390;2023-04-24T09:43:43;17.01;61.39
57709;SHT35;42558;52.388;13.390;2023-04-24T09:46:13;17.22;61.94
57709;SHT35;42558;52.388;13.390;2023-04-24T09:48:43;17.04;62.18
57709;SHT35;42558;52.388;13.390;2023-04-24T09:51:13;17.24;62.21
57709;SHT35;42558;52.388;13.390;2023-04-24T09:53:47;16.98;61.29
57709;SHT35;42558;52.388;13.390;2023-04-24T09:56:22;17.47;61.67
57709;SHT35;42558;52.388;13.390;2023-04-24T09:58:58;17.69;60.64
57709;SHT35;42558;52.388;13.390;2023-04-24T10:01:36;17.84;60.17
57709;SHT35;42558;52.388;13.390;2023-04-24T10:06:55;18.13;58.20
57709;SHT35;42558;52.388;13.390;2023-04-24T10:09:26;18.19;58.73
57709;SHT35;42558;52.388;13.390;2023-04-24T10:11:54;18.54;58.51
57709;SHT35;42558;52.388;13.390;2023-04-24T10:14:23;17.88;58.69
57709;SHT35;42558;52.388;13.390;2023-04-24T10:16:54;18.94;56.73
57709;SHT35;42558;52.388;13.390;2023-04-24T10:19:26;19.06;55.97
57709;SHT35;42558;52.388;13.390;2023-04-24T10:21:58;18.47;57.68
57709;SHT35;42558;52.388;13.390;2023-04-24T10:24:30;18.67;57.61
57709;SHT35;42558;52.388;13.390;2023-04-24T10:27:02;18.70;57.36
57709;SHT35;42558;52.388;13.390;2023-04-24T10:29:34;17.88;58.66
57709;SHT35;42558;52.388;13.390;2023-04-24T10:32:07;17.56;59.07
57709;SHT35;42558;52.388;13.390;2023-04-24T10:34:38;17.40;59.44
57709;SHT35;42558;52.388;13.390;2023-04-24T10:37:09;17.11;60.20
57709;SHT35;42558;52.388;13.390;2023-04-24T10:39:40;16.83;60.89
57709;SHT35;42558;52.388;13.390;2023-04-24T10:42:15;16.83;61.55
57709;SHT35;42558;52.388;13.390;2023-04-24T10:44:49;17.12;60.80
57709;SHT35;42558;52.388;13.390;2023-04-24T10:47:19;17.08;60.23
57709;SHT35;42558;52.388;13.390;2023-04-24T10:49:46;16.89;60.79
57709;SHT35;42558;52.388;13.390;2023-04-24T10:52:21;17.07;61.57
57709;SHT35;42558;52.388;13.390;2023-04-24T10:54:49;17.09;60.84
57709;SHT35;42558;52.388;13.390;2023-04-24T10:59:51;18.02;59.52
57709;SHT35;42558;52.388;13.390;2023-04-24T11:02:49;18.35;58.37
57709;SHT35;42558;52.388;13.390;2023-04-24T11:05:24;18.39;57.57
57709;SHT35;42558;52.388;13.390;2023-04-24T11:08:29;18.18;57.74
57709;SHT35;42558;52.388;13.390;2023-04-24T11:11:16;17.49;58.89
57709;SHT35;42558;52.388;13.390;2023-04-24T11:24:36;15.21;74.09
57709;SHT35;42558;52.388;13.390;2023-04-24T11:27:17;14.34;77.88
57709;SHT35;42558;52.388;13.390;2023-04-24T11:34:58;15.09;76.43
57709;SHT35;42558;52.388;13.390;2023-04-24T11:37:36;15.46;77.57
57709;SHT35;42558;52.388;13.390;2023-04-24T11:40:12;16.22;76.16
57709;SHT35;42558;52.388;13.390;2023-04-24T11:42:47;16.47;75.00
57709;SHT35;42558;52.388;13.390;2023-04-24T11:47:58;16.62;71.19
57709;SHT35;42558;52.388;13.390;2023-04-24T11:50:28;16.66;72.25
57709;SHT35;42558;52.388;13.390;2023-04-24T11:52:59;16.89;69.93
57709;SHT35;42558;52.388;13.390;2023-04-24T11:55:29;16.66;71.17
57709;SHT35;42558;52.388;13.390;2023-04-24T11:57:59;16.91;69.31
57709;SHT35;42558;52.388;13.390;2023-04-24T12:00:30;16.95;68.88
57709;SHT35;42558;52.388;13.390;2023-04-24T12:03:06;17.00;67.03
57709;SHT35;42558;52.388;13.390;2023-04-24T12:05:35;17.43;67.06
57709;SHT35;42558;52.388;13.390;2023-04-24T12:08:03;17.25;65.44
57709;SHT35;42558;52.388;13.390;2023-04-24T12:10:34;16.87;65.63
57709;SHT35;42558;52.388;13.390;2023-04-24T12:13:04;17.39;65.04
57709;SHT35;42558;52.388;13.390;2023-04-24T12:15:32;17.37;64.35
57709;SHT35;42558;52.388;13.390;2023-04-24T12:18:01;16.87;63.13
57709;SHT35;42558;52.388;13.390;2023-04-24T12:20:30;16.80;62.27
57709;SHT35;42558;52.388;13.390;2023-04-24T12:23:00;16.84;62.16
57709;SHT35;42558;52.388;13.390;2023-04-24T12:25:30;16.82;60.07
57709;SHT35;42558;52.388;13.390;2023-04-24T12:30:34;16.82;59.38
57709;SHT35;42558;52.388;13.390;2023-04-24T12:33:07;16.81;54.09
57709;SHT35;42558;52.388;13.390;2023-04-24T12:35:39;16.81;52.43
57709;SHT35;42558;52.388;13.390;2023-04-24T12:38:10;16.86;52.81
57709;SHT35;42558;52.388;13.390;2023-04-24T12:40:44;16.93;51.68
57709;SHT35;42558;52.388;13.390;2023-04-24T12:43:15;17.07;52.23
57709;SHT35;42558;52.388;13.390;2023-04-24T12:45:49;17.15;51.70
57709;SHT35;42558;52.388;13.390;2023-04-24T12:48:16;17.28;51.49
57709;SHT35;42558;52.388;13.390;2023-04-24T12:50:46;17.38;52.23
57709;SHT35;42558;52.388;13.390;2023-04-24T12:53:16;17.90;51.84
57709;SHT35;42558;52.388;13.390;2023-04-24T12:55:46;17.84;49.45
57709;SHT35;42558;52.388;13.390;2023-04-24T12:58:21;17.67;49.49
57709;SHT35;42558;52.388;13.390;2023-04-24T13:00:51;17.34;47.65
57709;SHT35;42558;52.388;13.390;2023-04-24T13:03:21;17.52;48.00
57709;SHT35;42558;52.388;13.390;2023-04-24T13:05:51;18.00;47.70
57709;SHT35;42558;52.388;13.390;2023-04-24T13:08:21;18.34;45.73
57709;SHT35;42558;52.388;13.390;2023-04-24T13:10:51;18.25;45.43
57709;SHT35;42558;52.388;13.390;2023-04-24T13:13:22;18.15;46.14
57709;SHT35;42558;52.388;13.390;2023-04-24T13:15:52;18.32;46.00
57709;SHT35;42558;52.388;13.390;2023-04-24T13:18:22;18.42;45.49
57709;SHT35;42558;52.388;13.390;2023-04-24T13:20:52;18.69;45.58
57709;SHT35;42558;52.388;13.390;2023-04-24T13:23:22;18.85;45.21
57709;SHT35;42558;52.388;13.390;2023-04-24T13:25:52;18.87;44.78
57709;SHT35;42558;52.388;13.390;2023-04-24T13:28:24;18.38;44.54
57709;SHT35;42558;52.388;13.390;2023-04-24T13:30:54;18.56;44.88
57709;SHT35;42558;52.388;13.390;2023-04-24T13:33:24;18.39;45.24
57709;SHT35;42558;52.388;13.390;2023-04-24T13:35:54;18.15;45.51
57709;SHT35;42558;52.388;13.390;2023-04-24T13:38:23;18.56;44.88
57709;SHT35;42558;52.388;13.390;2023-04-24T13:40:53;18.89;44.21
57709;SHT35;42558;52.388;13.390;2023-04-24T13:43:24;18.61;42.51
57709;SHT35;42558;52.388;13.390;2023-04-24T13:45:54;18.64;43.78
57709;SHT35;42558;52.388;13.390;2023-04-24T13:48:24;18.62;41.99
57709;SHT35;42558;52.388;13.390;2023-04-24T13:50:53;18.29;43.80
57709;SHT35;42558;52.388;13.390;2023-04-24T13:53:23;18.58;44.78
57709;SHT35;42558;52.388;13.390;2023-04-24T13:55:53;18.42;44.28
57709;SHT35;42558;52.388;13.390;2023-04-24T13:58:24;18.24;45.19
57709;SHT35;42558;52.388;13.390;2023-04-24T14:00:54;18.64;46.60
57709;SHT35;42558;52.388;13.390;2023-04-24T14:03:24;18.44;45.03
57709;SHT35;42558;52.388;13.390;2023-04-24T14:05:53;18.81;43.38
57709;SHT35;42558;52.388;13.390;2023-04-24T14:08:21;19.37;42.49
57709;SHT35;42558;52.388;13.390;2023-04-24T14:10:49;19.75;42.62
57709;SHT35;42558;52.388;13.390;2023-04-24T14:13:18;19.89;42.96
57709;SHT35;42558;52.388;13.390;2023-04-24T14:15:46;18.94;41.55
57709;SHT35;42558;52.388;13.390;2023-04-24T14:18:15;18.17;43.25
57709;SHT35;42558;52.388;13.390;2023-04-24T14:20:43;18.56;42.89
57709;SHT35;42558;52.388;13.390;2023-04-24T14:23:11;18.52;42.38
57709;SHT35;42558;52.388;13.390;2023-04-24T14:25:40;18.34;42.07
57709;SHT35;42558;52.388;13.390;2023-04-24T14:28:08;18.22;43.58
57709;SHT35;42558;52.388;13.390;2023-04-24T14:30:37;18.52;43.79
57709;SHT35;42558;52.388;13.390;2023-04-24T14:33:05;18.80;43.64
57709;SHT35;42558;52.388;13.390;2023-04-24T14:35:34;18.94;42.89
57709;SHT35;42558;52.388;13.390;2023-04-24T14:38:05;19.16;42.24
57709;SHT35;42558;52.388;13.390;2023-04-24T14:40:33;18.64;42.70
57709;SHT35;42558;52.388;13.390;2023-04-24T14:43:24;18.26;43.91
57709;SHT35;42558;52.388;13.390;2023-04-24T14:45:53;18.19;45.44
57709;SHT35;42558;52.388;13.390;2023-04-24T14:48:23;18.30;44.21
57709;SHT35;42558;52.388;13.390;2023-04-24T14:50:54;18.88;45.25
57709;SHT35;42558;52.388;13.390;2023-04-24T14:53:24;18.48;43.20
57709;SHT35;42558;52.388;13.390;2023-04-24T14:55:54;17.99;44.52
57709;SHT35;42558;52.388;13.390;2023-04-24T14:58:24;17.49;45.11
57709;SHT35;42558;52.388;13.390;2023-04-24T15:00:54;17.20;46.07
57709;SHT35;42558;52.388;13.390;2023-04-24T15:03:24;17.21;46.53
57709;SHT35;42558;52.388;13.390;2023-04-24T15:05:56;17.34;47.29
57709;SHT35;42558;52.388;13.390;2023-04-24T15:08:26;17.97;45.83
57709;SHT35;42558;52.388;13.390;2023-04-24T15:10:56;18.21;43.74
57709;SHT35;42558;52.388;13.390;2023-04-24T15:13:26;17.83;43.93
57709;SHT35;42558;52.388;13.390;2023-04-24T15:15:56;17.56;44.28
57709;SHT35;42558;52.388;13.390;2023-04-24T15:18:26;17.63;45.16
57709;SHT35;42558;52.388;13.390;2023-04-24T15:20:58;17.98;44.64
57709;SHT35;42558;52.388;13.390;2023-04-24T15:23:29;17.81;45.13
57709;SHT35;42558;52.388;13.390;2023-04-24T15:25:56;17.30;45.71
57709;SHT35;42558;52.388;13.390;2023-04-24T15:28:24;16.68;46.12
57709;SHT35;42558;52.388;13.390;2023-04-24T15:30:53;16.24;47.16
57709;SHT35;42558;52.388;13.390;2023-04-24T15:33:21;16.17;47.80
57709;SHT35;42558;52.388;13.390;2023-04-24T15:35:50;16.30;48.11
57709;SHT35;42558;52.388;13.390;2023-04-24T15:38:18;16.32;48.05
57709;SHT35;42558;52.388;13.390;2023-04-24T15:40:46;16.32;47.86
57709;SHT35;42558;52.388;13.390;2023-04-24T15:43:16;16.12;47.38
57709;SHT35;42558;52.388;13.390;2023-04-24T15:45:43;15.93;48.19
57709;SHT35;42558;52.388;13.390;2023-04-24T15:48:12;15.83;48.75
57709;SHT35;42558;52.388;13.390;2023-04-24T15:50:40;15.73;48.59
57709;SHT35;42558;52.388;13.390;2023-04-24T15:53:09;15.88;49.28
57709;SHT35;42558;52.388;13.390;2023-04-24T15:55:37;15.88;48.54
57709;SHT35;42558;52.388;13.390;2023-04-24T15:58:05;15.79;49.24
57709;SHT35;42558;52.388;13.390;2023-04-24T16:00:34;15.73;49.46
57709;SHT35;42558;52.388;13.390;2023-04-24T16:03:02;15.84;49.75